createdAt,value
2019-01-03T00:01:32.107Z,91.870117
2019-01-03T00:06:55.968Z,95.806885
2019-01-03T00:12:18.816Z,93.249512
2019-01-03T00:17:41.491Z,90.496826
2019-01-03T00:23:04.248Z,92.224121
2019-01-03T00:28:26.903Z,90.722656
2019-01-03T00:33:53.209Z,90.368652
2019-01-03T00:39:17.004Z,91.516113
2019-01-03T00:44:40.036Z,91.516113
2019-01-03T00:50:04.937Z,91.265869
2019-01-03T00:55:29.998Z,89.978027
2019-01-03T01:00:53.567Z,91.05835
2019-01-03T01:06:16.256Z,90.74707
2019-01-03T01:11:39.183Z,90.911865
2019-01-03T01:17:02.459Z,91.326904
2019-01-03T01:22:37.566Z,91.119385
2019-01-03T01:28:01.331Z,91.534424
2019-01-03T01:33:24.816Z,91.326904
2019-01-03T01:38:47.842Z,91.534424
2019-01-03T01:44:12.013Z,91.497803
2019-01-03T01:49:36.448Z,92.163086
2019-01-03T01:54:59.094Z,92.016602
2019-01-03T02:00:24.484Z,92.224121
2019-01-03T02:05:48.245Z,93.054199
2019-01-03T02:11:11.471Z,92.84668
2019-01-03T02:16:36.422Z,93.475342
2019-01-03T02:21:59.876Z,93.994141
2019-01-03T02:27:28.052Z,93.457031
2019-01-03T02:32:52.621Z,95.062256
2019-01-03T02:38:15.977Z,95.831299
2019-01-03T02:43:39.569Z,96.417236
2019-01-03T02:49:03.223Z,96.417236
2019-01-03T02:54:26.671Z,96.832275
2019-01-03T02:59:51.994Z,96.893311
2019-01-03T03:05:16.216Z,96.490479
2019-01-03T03:10:41.028Z,94.989014
2019-01-03T03:16:06.024Z,95.300293
2019-01-03T03:21:29.118Z,95.97168
2019-01-03T03:26:52.092Z,96.746826
2019-01-03T03:32:14.944Z,98.144531
2019-01-03T03:37:37.727Z,98.919678
2019-01-03T03:43:00.468Z,99.127197
2019-01-03T03:48:24.136Z,99.127197
2019-01-03T03:53:47.939Z,99.438477
2019-01-03T03:59:13.568Z,99.749756
2019-01-03T04:04:37.180Z,99.542236
2019-01-03T04:10:00.185Z,99.291992
2019-01-03T04:15:24.150Z,98.87085
2019-01-03T04:20:46.821Z,98.974609
2019-01-03T04:26:09.503Z,98.828125
2019-01-03T04:31:32.295Z,98.095703
2019-01-03T04:36:55.291Z,98.455811
2019-01-03T04:42:18.106Z,99.499512
2019-01-03T04:47:42.176Z,99.499512
2019-01-03T04:53:06.329Z,99.291992
2019-01-03T04:58:30.249Z,98.974609
2019-01-03T05:03:53.401Z,99.291992
2019-01-03T05:09:16.679Z,99.499512
2019-01-03T05:14:39.376Z,99.450684
2019-01-03T05:20:02.298Z,99.603271
2019-01-03T05:25:26.919Z,99.810791
2019-01-03T05:30:49.913Z,99.914551
2019-01-03T05:36:15.091Z,99.993896
2019-01-03T05:41:38.652Z,99.865723
2019-01-03T05:47:01.674Z,99.993896
2019-01-03T05:52:24.885Z,99.993896
2019-01-03T05:57:48.112Z,99.993896
2019-01-03T06:03:10.949Z,99.993896
2019-01-03T06:08:33.581Z,99.993896
2019-01-03T06:13:57.172Z,99.993896
2019-01-03T06:19:22.488Z,99.993896
2019-01-03T06:24:45.338Z,99.993896
2019-01-03T06:30:08.190Z,99.993896
2019-01-03T06:35:30.893Z,99.993896
2019-01-03T06:40:54.059Z,99.993896
2019-01-03T06:46:17.255Z,99.993896
2019-01-03T06:51:40.317Z,99.993896
2019-01-03T06:57:03.589Z,99.993896
2019-01-03T07:02:26.874Z,99.993896
2019-01-03T07:07:49.754Z,99.993896
2019-01-03T07:13:12.509Z,99.993896
2019-01-03T07:18:35.363Z,99.993896
2019-01-03T07:24:01.206Z,99.993896
2019-01-03T07:29:24.059Z,99.993896
2019-01-03T07:34:46.748Z,99.993896
2019-01-03T07:40:09.511Z,99.993896
2019-01-03T07:45:32.873Z,99.993896
2019-01-03T07:50:56.858Z,99.993896
2019-01-03T07:56:19.734Z,99.993896
2019-01-03T08:01:57.194Z,99.993896
2019-01-03T08:07:32.375Z,99.993896
2019-01-03T08:12:56.529Z,99.993896
2019-01-03T08:18:19.461Z,99.993896
2019-01-03T08:23:42.225Z,99.993896
2019-01-03T08:29:13.773Z,99.993896
2019-01-03T08:34:37.573Z,99.993896
2019-01-03T08:40:01.248Z,99.993896
2019-01-03T08:45:33.129Z,99.993896
2019-01-03T08:51:06.715Z,99.993896
2019-01-03T08:56:38.381Z,99.993896
2019-01-03T09:02:11.294Z,99.993896
2019-01-03T09:07:36.091Z,99.993896
2019-01-03T09:12:59.044Z,99.993896
2019-01-03T09:18:21.832Z,99.993896
2019-01-03T09:23:45.732Z,99.993896
2019-01-03T09:29:08.640Z,99.993896
2019-01-03T09:34:32.200Z,99.993896
2019-01-03T09:39:55.053Z,99.993896
2019-01-03T09:45:17.909Z,99.993896
2019-01-03T09:50:40.723Z,99.993896
2019-01-03T09:56:03.435Z,99.847412
2019-01-03T10:01:26.363Z,99.536133
2019-01-03T10:06:49.219Z,99.328613
2019-01-03T10:12:14.686Z,99.487305
2019-01-03T10:17:37.517Z,99.487305
2019-01-03T10:23:00.321Z,99.072266
2019-01-03T10:28:23.286Z,98.553467
2019-01-03T10:33:47.115Z,98.449707
2019-01-03T10:39:10.208Z,98.498535
2019-01-03T10:44:33.005Z,98.034668
2019-01-03T10:49:56.859Z,97.930908
2019-01-03T10:55:19.721Z,98.510742
2019-01-03T11:00:42.476Z,97.723389
2019-01-03T11:06:05.251Z,98.345947
2019-01-03T11:11:28.820Z,98.449707
2019-01-03T11:16:51.742Z,98.406982
2019-01-03T11:22:15.606Z,99.133301
2019-01-03T11:27:38.515Z,99.029541
2019-01-03T11:33:01.203Z,99.383545
2019-01-03T11:38:23.978Z,98.614502
2019-01-03T11:43:46.925Z,98.303223
2019-01-03T11:49:09.838Z,98.303223
2019-01-03T11:54:32.515Z,97.845459
2019-01-03T11:59:54.635Z,97.119141
2019-01-03T12:05:18.681Z,97.070312
2019-01-03T12:10:42.655Z,97.070312
2019-01-03T12:16:05.459Z,96.447754
2019-01-03T12:21:29.156Z,96.655273
2019-01-03T12:26:51.920Z,97.070312
2019-01-03T12:32:15.712Z,96.966553
2019-01-03T12:37:39.664Z,96.508789
2019-01-03T12:43:05.281Z,96.508789
2019-01-03T12:48:28.058Z,95.574951
2019-01-03T12:53:51.987Z,96.862793
2019-01-03T12:59:14.773Z,96.343994
2019-01-03T13:04:37.550Z,96.966553
2019-01-03T13:10:00.333Z,96.862793
2019-01-03T13:15:33.538Z,96.136475
2019-01-03T13:21:05.599Z,95.513916
2019-01-03T13:26:42.017Z,96.240234
2019-01-03T13:32:17.025Z,96.343994
2019-01-03T13:37:51.588Z,96.862793
2019-01-03T13:43:37.508Z,96.600342
2019-01-03T13:49:10.406Z,95.202637
2019-01-03T13:54:52.426Z,94.995117
2019-01-03T14:00:27.619Z,96.032715
2019-01-03T14:05:51.822Z,95.825195
2019-01-03T14:11:14.624Z,96.289062
2019-01-03T14:16:38.285Z,96.600342
2019-01-03T14:22:04.043Z,96.911621
2019-01-03T14:27:37.920Z,97.43042
2019-01-03T14:33:10.478Z,97.43042
2019-01-03T14:38:43.968Z,97.2229
2019-01-03T14:44:08.029Z,96.862793
2019-01-03T14:49:30.827Z,96.551514
2019-01-03T14:54:53.616Z,96.289062
2019-01-03T15:00:27.363Z,96.807861
2019-01-03T15:05:59.891Z,97.845459
2019-01-03T15:11:33.202Z,98.571777
2019-01-03T15:17:23.849Z,99.44458
2019-01-03T15:22:46.586Z,98.303223
2019-01-03T15:28:09.889Z,98.345947
2019-01-03T15:33:44.958Z,97.30835
2019-01-03T15:39:19.353Z,97.619629
2019-01-03T15:45:13.920Z,98.291016
2019-01-03T15:50:38.237Z,98.394775
2019-01-03T15:56:02.646Z,98.498535
2019-01-03T16:01:36.079Z,98.760986
2019-01-03T16:07:10.424Z,97.10083
2019-01-03T16:12:42.674Z,96.374512
2019-01-03T16:18:15.412Z,95.916748
2019-01-03T16:23:38.660Z,95.440674
2019-01-03T16:29:02.638Z,95.440674
2019-01-03T16:34:36.540Z,95.648193
2019-01-03T16:40:11.256Z,96.002197
2019-01-03T16:45:46.557Z,97.192383
2019-01-03T16:51:23.668Z,98.217773
2019-01-03T16:57:02.373Z,99.926758
2019-01-03T17:02:34.056Z,99.993896
2019-01-03T17:07:59.098Z,99.993896
2019-01-03T17:13:23.321Z,99.993896
2019-01-03T17:18:58.152Z,99.993896
2019-01-03T17:24:30.998Z,99.993896
2019-01-03T17:30:03.908Z,99.993896
2019-01-03T17:35:27.420Z,99.993896
2019-01-03T17:40:57.600Z,99.993896
2019-01-03T17:46:31.664Z,99.993896
2019-01-03T17:51:55.350Z,99.993896
2019-01-03T17:57:18.694Z,99.993896
2019-01-03T18:02:41.517Z,99.993896
2019-01-03T18:08:04.803Z,99.993896
2019-01-03T18:13:29.153Z,99.993896
2019-01-03T18:19:04.106Z,99.993896
2019-01-03T18:24:37.499Z,99.993896
2019-01-03T18:30:11.180Z,99.993896
2019-01-03T18:35:44.044Z,99.993896
2019-01-03T18:41:07.926Z,99.993896
2019-01-03T18:46:42.604Z,99.993896
2019-01-03T18:52:07.958Z,99.993896
2019-01-03T18:57:43.335Z,99.993896
2019-01-03T19:03:07.184Z,99.993896
2019-01-03T19:08:41.699Z,99.993896
2019-01-03T19:14:14.560Z,99.993896
2019-01-03T19:19:48.419Z,99.993896
2019-01-03T19:25:21.454Z,99.993896
2019-01-03T19:30:53.938Z,99.993896
2019-01-03T19:36:28.547Z,99.993896
2019-01-03T19:42:01.449Z,99.993896
2019-01-03T19:47:34.025Z,99.993896
2019-01-03T19:53:02.420Z,99.993896
2019-01-03T19:58:36.678Z,99.993896
2019-01-03T20:04:10.235Z,99.993896
2019-01-03T20:09:42.778Z,99.993896
2019-01-03T20:15:17.231Z,99.993896
2019-01-03T20:20:52.895Z,99.993896
2019-01-03T20:26:23.457Z,99.993896
2019-01-03T20:31:56.951Z,99.993896
2019-01-03T20:37:29.298Z,99.993896
2019-01-03T20:43:01.293Z,99.993896
2019-01-03T20:48:25.019Z,99.993896
2019-01-03T20:54:00.076Z,99.993896
2019-01-03T21:00:03.322Z,99.993896
2019-01-03T21:05:37.988Z,99.993896
2019-01-03T21:11:12.891Z,99.993896
2019-01-03T21:16:46.966Z,99.993896
2019-01-03T21:22:20.053Z,99.993896
2019-01-03T21:27:42.809Z,99.993896
2019-01-03T21:33:08.717Z,99.993896
2019-01-03T21:38:34.308Z,99.993896
2019-01-03T21:43:58.506Z,99.993896
2019-01-03T21:49:24.402Z,99.993896
2019-01-03T21:54:50.669Z,99.993896
2019-01-03T22:00:15.667Z,99.993896
2019-01-03T22:05:43.181Z,99.993896
2019-01-03T22:11:08.572Z,99.993896
2019-01-03T22:16:33.442Z,99.993896
2019-01-03T22:22:34.215Z,99.993896
2019-01-03T22:28:09.987Z,99.993896
2019-01-03T22:33:32.760Z,99.993896
2019-01-03T22:39:05.750Z,99.993896
2019-01-03T22:44:41.555Z,99.993896
2019-01-03T22:50:15.050Z,99.993896
2019-01-03T22:55:50.889Z,99.993896
2019-01-03T23:01:47.642Z,99.993896
2019-01-03T23:07:20.585Z,99.993896
2019-01-03T23:12:53.348Z,99.993896
2019-01-03T23:18:31.432Z,99.993896
2019-01-03T23:24:05.283Z,99.993896
2019-01-03T23:29:41.482Z,99.993896
2019-01-03T23:35:14.811Z,99.993896
2019-01-03T23:40:37.635Z,99.993896
2019-01-03T23:46:01.823Z,99.993896
2019-01-03T23:51:25.455Z,99.993896
2019-01-03T23:56:49.316Z,99.993896
